Time,TemperatureF,DewpointF,PressureIn,WindDirection,WindDirectionDegrees,WindSpeedMPH,WindSpeedGustMPH,Humidity,HourlyPrecipIn,Conditions,Clouds,dailyrainin,SolarRadiationWatts/m^2,SoftwareType,DateUTC
2013-07-12 00:09:00,49.4,47.0,29.79,SSW,205,0.0,1.0,90,0.00,,,0.00,0,weatherlink.com 1.10,2013-07-12 07:09:00,
2013-07-12 00:24:00,49.0,47.0,29.79,SSW,205,1.0,1.0,91,0.00,,,0.00,0,weatherlink.com 1.10,2013-07-12 07:24:00,
2013-07-12 00:39:00,48.9,47.0,29.79,SSW,205,0.0,1.0,92,0.00,,,0.00,0,weatherlink.com 1.10,2013-07-12 07:39:00,
2013-07-12 00:54:00,49.3,48.0,29.79,SSW,205,0.0,1.0,94,0.00,,,0.00,0,weatherlink.com 1.10,2013-07-12 07:54:00,
2013-07-12 01:09:00,49.8,48.0,29.79,SW,235,0.0,2.0,93,0.00,,,0.00,0,weatherlink.com 1.10,2013-07-12 08:09:00,
2013-07-12 01:24:00,50.3,48.0,29.80,WSW,253,0.0,1.0,92,0.00,,,0.00,0,weatherlink.com 1.10,2013-07-12 08:24:00,
2013-07-12 01:39:00,50.7,49.0,29.79,West,259,1.0,3.0,92,0.00,,,0.00,0,weatherlink.com 1.10,2013-07-12 08:39:00,
2013-07-12 01:54:00,51.0,49.0,29.79,West,267,2.0,3.0,92,0.00,,,0.00,0,weatherlink.com 1.10,2013-07-12 08:54:00,
2013-07-12 02:09:00,51.0,49.0,29.79,WSW,238,1.0,2.0,91,0.00,,,0.00,0,weatherlink.com 1.10,2013-07-12 09:09:00,
2013-07-12 02:24:00,51.2,49.0,29.79,West,262,1.0,2.0,92,0.00,,,0.00,0,weatherlink.com 1.10,2013-07-12 09:24:00,
2013-07-12 02:39:00,51.2,49.0,29.79,West,262,0.0,2.0,92,0.00,,,0.00,0,weatherlink.com 1.10,2013-07-12 09:39:00,
2013-07-12 02:54:00,51.2,49.0,29.79,West,262,1.0,2.0,93,0.00,,,0.00,0,weatherlink.com 1.10,2013-07-12 09:54:00,
2013-07-12 03:09:00,51.0,49.0,29.79,WSW,250,0.0,2.0,94,0.00,,,0.00,0,weatherlink.com 1.10,2013-07-12 10:09:00,
2013-07-12 03:24:00,51.1,50.0,29.79,WSW,240,0.0,2.0,94,0.00,,,0.00,0,weatherlink.com 1.10,2013-07-12 10:24:00,
2013-07-12 03:39:00,51.0,49.0,29.79,West,262,0.0,3.0,94,0.00,,,0.00,0,weatherlink.com 1.10,2013-07-12 10:39:00,
2013-07-12 03:54:00,50.8,49.0,29.79,West,280,1.0,2.0,94,0.00,,,0.00,0,weatherlink.com 1.10,2013-07-12 10:54:00,
2013-07-12 04:09:00,50.7,49.0,29.79,West,280,0.0,2.0,94,0.00,,,0.00,0,weatherlink.com 1.10,2013-07-12 11:09:00,
2013-07-12 04:25:00,50.8,50.0,29.78,West,280,1.0,2.0,95,0.00,,,0.00,0,weatherlink.com 1.10,2013-07-12 11:25:00,
2013-07-12 04:40:00,50.6,49.0,29.79,West,270,1.0,2.0,95,0.00,,,0.00,0,weatherlink.com 1.10,2013-07-12 11:40:00,
2013-07-12 04:55:00,50.7,49.0,29.79,West,270,1.0,2.0,95,0.00,,,0.00,0,weatherlink.com 1.10,2013-07-12 11:55:00,
2013-07-12 05:10:00,50.8,50.0,29.79,West,270,0.0,1.0,95,0.00,,,0.00,0,weatherlink.com 1.10,2013-07-12 12:10:00,
2013-07-12 05:25:00,50.8,50.0,29.79,WSW,248,0.0,2.0,95,0.00,,,0.00,0,weatherlink.com 1.10,2013-07-12 12:25:00,
2013-07-12 05:40:00,50.9,50.0,29.79,WNW,285,1.0,2.0,95,0.00,,,0.00,0,weatherlink.com 1.10,2013-07-12 12:40:00,
2013-07-12 05:55:00,50.9,50.0,29.79,WNW,285,0.0,1.0,95,0.00,,,0.00,0,weatherlink.com 1.10,2013-07-12 12:55:00,
2013-07-12 06:10:00,50.9,50.0,29.80,WNW,284,1.0,2.0,95,0.00,,,0.00,0,weatherlink.com 1.10,2013-07-12 13:10:00,
2013-07-12 06:25:00,50.8,50.0,29.80,NW,305,1.0,2.0,96,0.00,,,0.00,9,weatherlink.com 1.10,2013-07-12 13:25:00,
2013-07-12 06:40:00,51.0,50.0,29.80,West,271,1.0,3.0,96,0.00,,,0.00,18,weatherlink.com 1.10,2013-07-12 13:40:00,
2013-07-12 06:55:00,51.0,50.0,29.80,West,261,2.0,4.0,96,0.00,,,0.00,26,weatherlink.com 1.10,2013-07-12 13:55:00,
2013-07-12 07:10:00,51.0,50.0,29.81,West,259,1.0,3.0,96,0.00,,,0.00,37,weatherlink.com 1.10,2013-07-12 14:10:00,
2013-07-12 07:25:00,51.0,50.0,29.81,WSW,244,3.0,4.0,96,0.00,,,0.00,42,weatherlink.com 1.10,2013-07-12 14:25:00,
2013-07-12 07:40:00,51.2,50.0,29.81,WSW,242,1.0,3.0,96,0.00,,,0.00,56,weatherlink.com 1.10,2013-07-12 14:40:00,
2013-07-12 07:54:00,51.2,50.0,29.82,WSW,254,2.0,4.0,95,0.00,,,0.00,65,weatherlink.com 1.10,2013-07-12 14:54:00,
2013-07-12 08:09:00,51.3,50.0,29.82,NW,306,1.0,4.0,95,0.00,,,0.00,86,weatherlink.com 1.10,2013-07-12 15:09:00,
2013-07-12 08:24:00,51.7,50.0,29.82,West,273,0.0,3.0,95,0.00,,,0.00,102,weatherlink.com 1.10,2013-07-12 15:24:00,
2013-07-12 08:39:00,52.0,50.0,29.82,WNW,294,2.0,2.0,94,0.00,,,0.00,141,weatherlink.com 1.10,2013-07-12 15:39:00,
2013-07-12 08:55:00,52.4,51.0,29.82,South,183,0.0,4.0,93,0.00,,,0.00,144,weatherlink.com 1.10,2013-07-12 15:55:00,
2013-07-12 09:10:00,52.9,51.0,29.83,West,281,2.0,3.0,92,0.00,,,0.00,179,weatherlink.com 1.10,2013-07-12 16:10:00,
2013-07-12 09:25:00,54.0,52.0,29.82,West,273,1.0,4.0,91,0.00,,,0.00,206,weatherlink.com 1.10,2013-07-12 16:25:00,
2013-07-12 09:40:00,54.8,52.0,29.82,WSW,250,2.0,3.0,89,0.00,,,0.00,348,weatherlink.com 1.10,2013-07-12 16:40:00,
2013-07-12 09:55:00,56.3,52.0,29.82,South,186,1.0,5.0,86,0.00,,,0.00,420,weatherlink.com 1.10,2013-07-12 16:55:00,
2013-07-12 10:10:00,59.3,53.0,29.82,NNW,327,2.0,5.0,80,0.00,,,0.00,515,weatherlink.com 1.10,2013-07-12 17:10:00,
2013-07-12 10:40:00,63.2,54.0,29.82,WSW,256,4.0,7.0,72,0.00,,,0.00,756,weatherlink.com 1.10,2013-07-12 17:40:00,
2013-07-12 11:10:00,66.2,55.0,29.82,WSW,250,2.0,5.0,67,0.00,,,0.00,814,weatherlink.com 1.10,2013-07-12 18:10:00,
2013-07-12 11:25:00,68.4,55.0,29.82,NNE,12,1.0,7.0,63,0.00,,,0.00,840,weatherlink.com 1.10,2013-07-12 18:25:00,
2013-07-12 11:40:00,69.7,56.0,29.82,NW,310,1.0,7.0,62,0.00,,,0.00,863,weatherlink.com 1.10,2013-07-12 18:40:00,
2013-07-12 12:10:00,73.1,56.0,29.81,WNW,301,3.0,6.0,56,0.00,,,0.00,895,weatherlink.com 1.10,2013-07-12 19:10:00,
2013-07-12 12:56:00,78.1,57.0,29.81,East,90,2.0,8.0,48,0.00,,,0.00,925,weatherlink.com 1.10,2013-07-12 19:56:00,
2013-07-12 13:11:00,79.1,58.0,29.80,WNW,292,2.0,7.0,48,0.00,,,0.00,932,weatherlink.com 1.10,2013-07-12 20:11:00,
2013-07-12 13:26:00,79.9,57.0,29.80,West,277,3.0,9.0,45,0.00,,,0.00,926,weatherlink.com 1.10,2013-07-12 20:26:00,
2013-07-12 13:56:00,82.4,57.0,29.80,WNW,286,4.0,10.0,42,0.00,,,0.00,914,weatherlink.com 1.10,2013-07-12 20:56:00,
2013-07-12 14:12:00,82.7,57.0,29.79,SSW,204,2.0,10.0,42,0.00,,,0.00,902,weatherlink.com 1.10,2013-07-12 21:12:00,
2013-07-12 14:27:00,82.2,57.0,29.79,West,259,3.0,8.0,42,0.00,,,0.00,896,weatherlink.com 1.10,2013-07-12 21:27:00,
2013-07-12 14:57:00,82.8,56.0,29.78,SW,225,3.0,9.0,40,0.00,,,0.00,849,weatherlink.com 1.10,2013-07-12 21:57:00,
2013-07-12 15:27:00,84.2,58.0,29.78,WNW,283,6.0,9.0,41,0.00,,,0.00,798,weatherlink.com 1.10,2013-07-12 22:27:00,
2013-07-12 15:42:00,84.8,57.0,29.77,SSE,160,3.0,9.0,39,0.00,,,0.00,770,weatherlink.com 1.10,2013-07-12 22:42:00,
2013-07-12 15:57:00,83.9,56.0,29.77,WSW,239,7.0,8.0,39,0.00,,,0.00,740,weatherlink.com 1.10,2013-07-12 22:57:00,
2013-07-12 16:12:00,83.3,57.0,29.77,SW,217,5.0,10.0,40,0.00,,,0.00,705,weatherlink.com 1.10,2013-07-12 23:12:00,
2013-07-12 16:27:00,83.4,56.0,29.76,West,271,5.0,10.0,39,0.00,,,0.00,666,weatherlink.com 1.10,2013-07-12 23:27:00,
2013-07-12 16:57:00,82.6,55.0,29.75,West,260,7.0,10.0,39,0.00,,,0.00,587,weatherlink.com 1.10,2013-07-12 23:57:00,
2013-07-12 17:12:00,83.6,55.0,29.75,SW,233,7.0,9.0,38,0.00,,,0.00,545,weatherlink.com 1.10,2013-07-13 00:12:00,
2013-07-12 17:27:00,83.2,55.0,29.75,WSW,239,5.0,10.0,38,0.00,,,0.00,501,weatherlink.com 1.10,2013-07-13 00:27:00,
2013-07-12 17:57:00,82.7,55.0,29.74,SW,227,6.0,8.0,39,0.00,,,0.00,406,weatherlink.com 1.10,2013-07-13 00:57:00,
2013-07-12 18:12:00,81.8,55.0,29.74,West,259,8.0,9.0,40,0.00,,,0.00,362,weatherlink.com 1.10,2013-07-13 01:12:00,
2013-07-12 18:27:00,81.4,55.0,29.74,WSW,252,2.0,8.0,40,0.00,,,0.00,313,weatherlink.com 1.10,2013-07-13 01:27:00,
2013-07-12 18:42:00,80.0,55.0,29.74,West,269,3.0,5.0,42,0.00,,,0.00,269,weatherlink.com 1.10,2013-07-13 01:42:00,
2013-07-12 18:57:00,79.5,54.0,29.74,WSW,243,2.0,8.0,42,0.00,,,0.00,218,weatherlink.com 1.10,2013-07-13 01:57:00,
2013-07-12 19:12:00,78.4,55.0,29.74,WSW,250,3.0,6.0,44,0.00,,,0.00,172,weatherlink.com 1.10,2013-07-13 02:12:00,
2013-07-12 19:27:00,77.3,55.0,29.74,WSW,248,1.0,6.0,46,0.00,,,0.00,130,weatherlink.com 1.10,2013-07-13 02:27:00,
2013-07-12 19:42:00,76.4,55.0,29.74,SW,236,1.0,5.0,48,0.00,,,0.00,81,weatherlink.com 1.10,2013-07-13 02:42:00,
2013-07-12 20:12:00,74.2,55.0,29.74,WSW,257,0.0,3.0,52,0.00,,,0.00,16,weatherlink.com 1.10,2013-07-13 03:12:00,
2013-07-12 20:27:00,72.1,55.0,29.74,WSW,257,0.0,1.0,55,0.00,,,0.00,9,weatherlink.com 1.10,2013-07-13 03:27:00,
2013-07-12 20:57:00,66.4,54.0,29.75,WSW,257,1.0,1.0,64,0.00,,,0.00,0,weatherlink.com 1.10,2013-07-13 03:57:00,
2013-07-12 21:12:00,64.6,54.0,29.75,South,182,1.0,2.0,68,0.00,,,0.00,0,weatherlink.com 1.10,2013-07-13 04:12:00,
2013-07-12 21:27:00,63.2,53.0,29.76,South,182,0.0,1.0,70,0.00,,,0.00,0,weatherlink.com 1.10,2013-07-13 04:27:00,
2013-07-12 21:57:00,60.1,52.0,29.77,South,185,1.0,2.0,75,0.00,,,0.00,0,weatherlink.com 1.10,2013-07-13 04:57:00,
2013-07-12 22:12:00,59.2,52.0,29.77,South,185,0.0,2.0,77,0.00,,,0.00,0,weatherlink.com 1.10,2013-07-13 05:12:00,
2013-07-12 22:27:00,58.1,52.0,29.77,SSW,199,1.0,2.0,79,0.00,,,0.00,0,weatherlink.com 1.10,2013-07-13 05:27:00,
2013-07-12 22:42:00,57.2,51.0,29.77,SSW,199,1.0,2.0,80,0.00,,,0.00,0,weatherlink.com 1.10,2013-07-13 05:42:00,
2013-07-12 23:12:00,55.9,51.0,29.77,SSW,199,1.0,2.0,84,0.00,,,0.00,0,weatherlink.com 1.10,2013-07-13 06:12:00,
2013-07-12 23:27:00,55.4,51.0,29.77,SSW,199,0.0,2.0,85,0.00,,,0.00,0,weatherlink.com 1.10,2013-07-13 06:27:00,
2013-07-12 23:42:00,55.1,51.0,29.78,SSW,199,1.0,2.0,86,0.00,,,0.00,0,weatherlink.com 1.10,2013-07-13 06:42:00,
2013-07-12 23:57:00,54.5,51.0,29.78,SSW,199,0.0,2.0,87,0.00,,,0.00,0,weatherlink.com 1.10,2013-07-13 06:57:00,